ΕΜΥ, Εθνική Μετεωρολογική Υπηρεσία - Δελτία Καιρού, Προγνώσεις

ΑΕΡΟΝΑΥΤΙΛΙΑ

GREEK AIRPORTS CODES

TAF LGMG 280700Z 2809/2818 16005KT 9999 FEW020 BECMG 2816/2818 08010KT=

EUROPEAN AIRPORTS CODES

LFPO 280930Z VRB04KT 9999 SCT031 19/09 Q1023 NOSIG=